sensor_id;sensor_type;location;lat;lon;timestamp;P1;durP1;ratioP1;P2;durP2;ratioP2
59008;SDS011;44794;42.652;23.318;2022-11-20T00:01:09;5.65;;;1.40;;
59008;SDS011;44794;42.652;23.318;2022-11-20T00:03:35;2.40;;;1.20;;
59008;SDS011;44794;42.652;23.318;2022-11-20T00:06:02;3.47;;;1.48;;
59008;SDS011;44794;42.652;23.318;2022-11-20T00:08:32;4.18;;;1.40;;
59008;SDS011;44794;42.652;23.318;2022-11-20T00:11:02;3.35;;;1.40;;
59008;SDS011;44794;42.652;23.318;2022-11-20T00:13:35;5.80;;;1.42;;
59008;SDS011;44794;42.652;23.318;2022-11-20T00:16:02;3.22;;;1.70;;
59008;SDS011;44794;42.652;23.318;2022-11-20T00:18:28;3.75;;;1.55;;
59008;SDS011;44794;42.652;23.318;2022-11-20T00:21:00;3.08;;;1.45;;
59008;SDS011;44794;42.652;23.318;2022-11-20T00:23:29;4.15;;;1.55;;
59008;SDS011;44794;42.652;23.318;2022-11-20T00:25:55;2.83;;;1.15;;
59008;SDS011;44794;42.652;23.318;2022-11-20T00:28:20;3.35;;;1.20;;
59008;SDS011;44794;42.652;23.318;2022-11-20T00:30:46;3.20;;;1.30;;
59008;SDS011;44794;42.652;23.318;2022-11-20T00:33:11;3.50;;;1.40;;
59008;SDS011;44794;42.652;23.318;2022-11-20T00:35:36;2.25;;;1.02;;
59008;SDS011;44794;42.652;23.318;2022-11-20T00:38:02;3.80;;;1.50;;
59008;SDS011;44794;42.652;23.318;2022-11-20T00:40:28;3.28;;;1.30;;
59008;SDS011;44794;42.652;23.318;2022-11-20T00:42:53;4.50;;;1.40;;
59008;SDS011;44794;42.652;23.318;2022-11-20T00:45:19;4.80;;;1.15;;
59008;SDS011;44794;42.652;23.318;2022-11-20T00:47:44;3.85;;;1.10;;
59008;SDS011;44794;42.652;23.318;2022-11-20T00:50:10;3.47;;;1.17;;
59008;SDS011;44794;42.652;23.318;2022-11-20T00:52:35;4.15;;;1.30;;
59008;SDS011;44794;42.652;23.318;2022-11-20T00:55:00;4.80;;;1.20;;
59008;SDS011;44794;42.652;23.318;2022-11-20T00:57:26;2.53;;;1.15;;
59008;SDS011;44794;42.652;23.318;2022-11-20T00:59:51;3.30;;;1.00;;
59008;SDS011;44794;42.652;23.318;2022-11-20T01:02:17;2.08;;;1.10;;
59008;SDS011;44794;42.652;23.318;2022-11-20T01:04:42;4.20;;;1.25;;
59008;SDS011;44794;42.652;23.318;2022-11-20T01:07:07;1.40;;;0.85;;
59008;SDS011;44794;42.652;23.318;2022-11-20T01:09:33;2.80;;;1.17;;
59008;SDS011;44794;42.652;23.318;2022-11-20T01:11:58;4.45;;;1.10;;
59008;SDS011;44794;42.652;23.318;2022-11-20T01:14:25;1.63;;;1.00;;
59008;SDS011;44794;42.652;23.318;2022-11-20T01:16:50;3.95;;;1.30;;
59008;SDS011;44794;42.652;23.318;2022-11-20T01:19:17;3.72;;;0.90;;
59008;SDS011;44794;42.652;23.318;2022-11-20T01:21:51;4.00;;;1.15;;
59008;SDS011;44794;42.652;23.318;2022-11-20T01:24:19;2.15;;;1.02;;
59008;SDS011;44794;42.652;23.318;2022-11-20T01:26:47;2.22;;;1.00;;
59008;SDS011;44794;42.652;23.318;2022-11-20T01:29:15;3.42;;;1.00;;
59008;SDS011;44794;42.652;23.318;2022-11-20T01:31:46;2.28;;;1.20;;
59008;SDS011;44794;42.652;23.318;2022-11-20T01:34:16;3.17;;;1.30;;
59008;SDS011;44794;42.652;23.318;2022-11-20T01:36:43;2.30;;;1.13;;
59008;SDS011;44794;42.652;23.318;2022-11-20T01:39:13;2.92;;;1.27;;
59008;SDS011;44794;42.652;23.318;2022-11-20T01:41:40;1.63;;;0.98;;
59008;SDS011;44794;42.652;23.318;2022-11-20T01:47:14;2.58;;;1.10;;
59008;SDS011;44794;42.652;23.318;2022-11-20T01:55:19;4.45;;;1.15;;
59008;SDS011;44794;42.652;23.318;2022-11-20T01:57:57;1.33;;;0.80;;
59008;SDS011;44794;42.652;23.318;2022-11-20T02:00:23;4.15;;;0.98;;
59008;SDS011;44794;42.652;23.318;2022-11-20T02:02:53;2.38;;;1.00;;
59008;SDS011;44794;42.652;23.318;2022-11-20T02:08:24;2.45;;;1.00;;
59008;SDS011;44794;42.652;23.318;2022-11-20T02:10:49;3.78;;;1.10;;
59008;SDS011;44794;42.652;23.318;2022-11-20T02:13:15;2.15;;;1.10;;
59008;SDS011;44794;42.652;23.318;2022-11-20T02:15:59;2.97;;;0.82;;
59008;SDS011;44794;42.652;23.318;2022-11-20T02:18:26;2.63;;;0.80;;
59008;SDS011;44794;42.652;23.318;2022-11-20T02:20:59;3.50;;;0.90;;
59008;SDS011;44794;42.652;23.318;2022-11-20T02:23:55;3.63;;;1.08;;
59008;SDS011;44794;42.652;23.318;2022-11-20T02:26:45;1.40;;;0.77;;
59008;SDS011;44794;42.652;23.318;2022-11-20T02:29:15;1.67;;;0.90;;
59008;SDS011;44794;42.652;23.318;2022-11-20T02:31:44;2.10;;;0.93;;
59008;SDS011;44794;42.652;23.318;2022-11-20T02:34:10;2.33;;;1.00;;
59008;SDS011;44794;42.652;23.318;2022-11-20T02:36:36;1.80;;;0.90;;
59008;SDS011;44794;42.652;23.318;2022-11-20T02:39:04;4.15;;;1.10;;
59008;SDS011;44794;42.652;23.318;2022-11-20T02:41:34;3.38;;;1.00;;
59008;SDS011;44794;42.652;23.318;2022-11-20T02:44:02;3.33;;;1.00;;
59008;SDS011;44794;42.652;23.318;2022-11-20T02:46:29;4.88;;;1.02;;
59008;SDS011;44794;42.652;23.318;2022-11-20T02:48:55;4.72;;;1.25;;
59008;SDS011;44794;42.652;23.318;2022-11-20T02:51:21;2.58;;;1.00;;
59008;SDS011;44794;42.652;23.318;2022-11-20T02:53:47;2.00;;;1.02;;
59008;SDS011;44794;42.652;23.318;2022-11-20T02:56:12;4.85;;;1.20;;
59008;SDS011;44794;42.652;23.318;2022-11-20T02:58:38;3.70;;;1.02;;
59008;SDS011;44794;42.652;23.318;2022-11-20T03:01:03;3.60;;;1.20;;
59008;SDS011;44794;42.652;23.318;2022-11-20T03:03:29;5.55;;;1.67;;
59008;SDS011;44794;42.652;23.318;2022-11-20T03:05:54;2.85;;;1.30;;
59008;SDS011;44794;42.652;23.318;2022-11-20T03:08:19;3.22;;;1.45;;
59008;SDS011;44794;42.652;23.318;2022-11-20T03:10:45;3.85;;;1.40;;
59008;SDS011;44794;42.652;23.318;2022-11-20T03:13:10;4.40;;;1.40;;
59008;SDS011;44794;42.652;23.318;2022-11-20T03:15:36;6.88;;;1.30;;
59008;SDS011;44794;42.652;23.318;2022-11-20T03:18:02;4.53;;;1.33;;
59008;SDS011;44794;42.652;23.318;2022-11-20T03:20:28;2.67;;;1.10;;
59008;SDS011;44794;42.652;23.318;2022-11-20T03:22:53;5.20;;;1.23;;
59008;SDS011;44794;42.652;23.318;2022-11-20T03:25:19;4.63;;;1.15;;
59008;SDS011;44794;42.652;23.318;2022-11-20T03:27:44;2.50;;;1.20;;
59008;SDS011;44794;42.652;23.318;2022-11-20T03:30:10;2.85;;;1.00;;
59008;SDS011;44794;42.652;23.318;2022-11-20T03:32:36;4.32;;;1.13;;
59008;SDS011;44794;42.652;23.318;2022-11-20T03:35:01;2.67;;;1.20;;
59008;SDS011;44794;42.652;23.318;2022-11-20T03:37:26;3.33;;;1.23;;
59008;SDS011;44794;42.652;23.318;2022-11-20T03:39:52;2.35;;;1.10;;
59008;SDS011;44794;42.652;23.318;2022-11-20T03:42:17;4.93;;;1.50;;
59008;SDS011;44794;42.652;23.318;2022-11-20T03:45:01;4.28;;;1.38;;
59008;SDS011;44794;42.652;23.318;2022-11-20T03:47:27;2.65;;;1.10;;
59008;SDS011;44794;42.652;23.318;2022-11-20T03:49:52;2.90;;;1.30;;
59008;SDS011;44794;42.652;23.318;2022-11-20T03:52:18;1.80;;;0.98;;
59008;SDS011;44794;42.652;23.318;2022-11-20T03:54:43;2.22;;;1.27;;
59008;SDS011;44794;42.652;23.318;2022-11-20T03:57:08;3.97;;;1.10;;
59008;SDS011;44794;42.652;23.318;2022-11-20T03:59:34;2.95;;;1.23;;
59008;SDS011;44794;42.652;23.318;2022-11-20T04:01:59;4.25;;;1.20;;
59008;SDS011;44794;42.652;23.318;2022-11-20T04:04:25;2.85;;;1.00;;
59008;SDS011;44794;42.652;23.318;2022-11-20T04:06:50;4.82;;;1.30;;
59008;SDS011;44794;42.652;23.318;2022-11-20T04:09:16;3.08;;;1.35;;
59008;SDS011;44794;42.652;23.318;2022-11-20T04:11:41;1.85;;;1.10;;
59008;SDS011;44794;42.652;23.318;2022-11-20T04:14:11;2.92;;;0.85;;
59008;SDS011;44794;42.652;23.318;2022-11-20T04:16:38;3.28;;;1.20;;
59008;SDS011;44794;42.652;23.318;2022-11-20T04:19:05;2.55;;;1.13;;
59008;SDS011;44794;42.652;23.318;2022-11-20T04:21:34;5.63;;;1.10;;
59008;SDS011;44794;42.652;23.318;2022-11-20T04:23:59;5.30;;;1.20;;
59008;SDS011;44794;42.652;23.318;2022-11-20T04:26:26;3.22;;;1.20;;
59008;SDS011;44794;42.652;23.318;2022-11-20T04:28:52;4.07;;;1.00;;
59008;SDS011;44794;42.652;23.318;2022-11-20T04:31:19;3.22;;;1.00;;
59008;SDS011;44794;42.652;23.318;2022-11-20T04:33:47;2.90;;;1.10;;
59008;SDS011;44794;42.652;23.318;2022-11-20T04:38:40;2.47;;;1.00;;
59008;SDS011;44794;42.652;23.318;2022-11-20T04:41:07;2.50;;;0.90;;
59008;SDS011;44794;42.652;23.318;2022-11-20T04:43:36;1.58;;;1.20;;
59008;SDS011;44794;42.652;23.318;2022-11-20T04:46:01;4.95;;;1.30;;
59008;SDS011;44794;42.652;23.318;2022-11-20T04:48:27;5.47;;;1.00;;
59008;SDS011;44794;42.652;23.318;2022-11-20T04:50:53;3.13;;;0.90;;
59008;SDS011;44794;42.652;23.318;2022-11-20T04:53:19;3.97;;;1.00;;
59008;SDS011;44794;42.652;23.318;2022-11-20T04:55:46;4.05;;;1.05;;
59008;SDS011;44794;42.652;23.318;2022-11-20T04:58:11;4.72;;;1.10;;
59008;SDS011;44794;42.652;23.318;2022-11-20T05:00:37;3.47;;;0.82;;
59008;SDS011;44794;42.652;23.318;2022-11-20T05:03:03;3.97;;;1.10;;
59008;SDS011;44794;42.652;23.318;2022-11-20T05:05:29;3.42;;;1.10;;
59008;SDS011;44794;42.652;23.318;2022-11-20T05:07:57;2.33;;;1.00;;
59008;SDS011;44794;42.652;23.318;2022-11-20T05:10:27;1.90;;;0.90;;
59008;SDS011;44794;42.652;23.318;2022-11-20T05:12:53;3.38;;;0.90;;
59008;SDS011;44794;42.652;23.318;2022-11-20T05:15:18;3.72;;;1.00;;
59008;SDS011;44794;42.652;23.318;2022-11-20T05:17:51;1.65;;;0.93;;
59008;SDS011;44794;42.652;23.318;2022-11-20T05:20:17;4.00;;;1.20;;
59008;SDS011;44794;42.652;23.318;2022-11-20T05:22:43;4.28;;;0.95;;
59008;SDS011;44794;42.652;23.318;2022-11-20T05:25:09;4.93;;;1.10;;
59008;SDS011;44794;42.652;23.318;2022-11-20T05:27:35;1.92;;;1.17;;
59008;SDS011;44794;42.652;23.318;2022-11-20T05:30:00;4.38;;;1.23;;
59008;SDS011;44794;42.652;23.318;2022-11-20T05:32:26;3.88;;;1.10;;
59008;SDS011;44794;42.652;23.318;2022-11-20T05:34:52;2.95;;;1.30;;
59008;SDS011;44794;42.652;23.318;2022-11-20T05:37:17;4.18;;;1.30;;
59008;SDS011;44794;42.652;23.318;2022-11-20T05:39:43;4.95;;;1.08;;
59008;SDS011;44794;42.652;23.318;2022-11-20T05:42:08;2.47;;;0.88;;
59008;SDS011;44794;42.652;23.318;2022-11-20T05:44:52;3.40;;;1.10;;
59008;SDS011;44794;42.652;23.318;2022-11-20T05:47:18;2.25;;;1.15;;
59008;SDS011;44794;42.652;23.318;2022-11-20T05:49:43;6.03;;;1.50;;
59008;SDS011;44794;42.652;23.318;2022-11-20T05:52:09;5.32;;;1.40;;
59008;SDS011;44794;42.652;23.318;2022-11-20T05:54:34;2.40;;;1.20;;
59008;SDS011;44794;42.652;23.318;2022-11-20T05:57:00;3.88;;;1.10;;
59008;SDS011;44794;42.652;23.318;2022-11-20T05:59:25;2.92;;;1.30;;
59008;SDS011;44794;42.652;23.318;2022-11-20T06:01:50;3.38;;;0.93;;
59008;SDS011;44794;42.652;23.318;2022-11-20T06:04:16;3.47;;;1.17;;
59008;SDS011;44794;42.652;23.318;2022-11-20T06:06:41;5.72;;;1.23;;
59008;SDS011;44794;42.652;23.318;2022-11-20T06:09:07;6.13;;;1.27;;
59008;SDS011;44794;42.652;23.318;2022-11-20T06:11:32;6.57;;;1.00;;
59008;SDS011;44794;42.652;23.318;2022-11-20T06:13:58;3.33;;;1.08;;
59008;SDS011;44794;42.652;23.318;2022-11-20T06:16:23;3.45;;;1.00;;
59008;SDS011;44794;42.652;23.318;2022-11-20T06:18:49;4.80;;;1.30;;
59008;SDS011;44794;42.652;23.318;2022-11-20T06:21:15;5.05;;;1.10;;
59008;SDS011;44794;42.652;23.318;2022-11-20T06:23:43;3.65;;;1.35;;
59008;SDS011;44794;42.652;23.318;2022-11-20T06:26:10;6.40;;;1.10;;
59008;SDS011;44794;42.652;23.318;2022-11-20T06:28:44;4.88;;;1.40;;
59008;SDS011;44794;42.652;23.318;2022-11-20T06:31:19;4.20;;;1.45;;
59008;SDS011;44794;42.652;23.318;2022-11-20T06:33:46;3.22;;;1.00;;
59008;SDS011;44794;42.652;23.318;2022-11-20T06:36:14;2.92;;;1.17;;
59008;SDS011;44794;42.652;23.318;2022-11-20T06:38:40;2.53;;;1.10;;
59008;SDS011;44794;42.652;23.318;2022-11-20T06:41:07;2.97;;;1.00;;
59008;SDS011;44794;42.652;23.318;2022-11-20T06:43:38;5.38;;;1.05;;
59008;SDS011;44794;42.652;23.318;2022-11-20T06:46:04;3.55;;;0.82;;
59008;SDS011;44794;42.652;23.318;2022-11-20T06:48:29;3.35;;;0.90;;
59008;SDS011;44794;42.652;23.318;2022-11-20T06:50:55;2.65;;;0.90;;
59008;SDS011;44794;42.652;23.318;2022-11-20T06:53:22;3.95;;;1.10;;
59008;SDS011;44794;42.652;23.318;2022-11-20T06:55:48;4.60;;;0.85;;
59008;SDS011;44794;42.652;23.318;2022-11-20T06:58:15;1.80;;;0.77;;
59008;SDS011;44794;42.652;23.318;2022-11-20T07:00:41;1.92;;;0.82;;
59008;SDS011;44794;42.652;23.318;2022-11-20T07:03:07;4.13;;;0.75;;
59008;SDS011;44794;42.652;23.318;2022-11-20T07:05:34;2.28;;;1.00;;
59008;SDS011;44794;42.652;23.318;2022-11-20T07:08:00;2.35;;;1.10;;
59008;SDS011;44794;42.652;23.318;2022-11-20T07:10:27;4.78;;;1.33;;
59008;SDS011;44794;42.652;23.318;2022-11-20T07:12:52;6.00;;;1.33;;
59008;SDS011;44794;42.652;23.318;2022-11-20T07:15:19;1.85;;;1.10;;
59008;SDS011;44794;42.652;23.318;2022-11-20T07:17:46;2.15;;;1.10;;
59008;SDS011;44794;42.652;23.318;2022-11-20T07:20:12;5.45;;;0.80;;
59008;SDS011;44794;42.652;23.318;2022-11-20T07:22:38;5.07;;;1.33;;
59008;SDS011;44794;42.652;23.318;2022-11-20T07:25:04;5.00;;;1.20;;
59008;SDS011;44794;42.652;23.318;2022-11-20T07:27:30;4.22;;;1.10;;
59008;SDS011;44794;42.652;23.318;2022-11-20T07:29:55;5.90;;;1.48;;
59008;SDS011;44794;42.652;23.318;2022-11-20T07:32:21;5.18;;;1.23;;
59008;SDS011;44794;42.652;23.318;2022-11-20T07:34:47;6.32;;;1.15;;
59008;SDS011;44794;42.652;23.318;2022-11-20T07:37:13;3.40;;;1.17;;
59008;SDS011;44794;42.652;23.318;2022-11-20T07:39:39;8.50;;;1.42;;
59008;SDS011;44794;42.652;23.318;2022-11-20T07:42:05;6.70;;;1.48;;
59008;SDS011;44794;42.652;23.318;2022-11-20T07:44:32;4.60;;;1.15;;
59008;SDS011;44794;42.652;23.318;2022-11-20T07:46:57;4.15;;;1.20;;
59008;SDS011;44794;42.652;23.318;2022-11-20T07:49:23;6.53;;;1.20;;
59008;SDS011;44794;42.652;23.318;2022-11-20T07:51:51;6.10;;;1.40;;
59008;SDS011;44794;42.652;23.318;2022-11-20T07:54:20;5.25;;;1.10;;
59008;SDS011;44794;42.652;23.318;2022-11-20T07:56:47;3.60;;;1.10;;
59008;SDS011;44794;42.652;23.318;2022-11-20T07:59:13;7.78;;;1.65;;
59008;SDS011;44794;42.652;23.318;2022-11-20T08:01:39;7.13;;;1.50;;
59008;SDS011;44794;42.652;23.318;2022-11-20T08:04:05;4.47;;;1.40;;
59008;SDS011;44794;42.652;23.318;2022-11-20T08:06:31;3.92;;;1.60;;
59008;SDS011;44794;42.652;23.318;2022-11-20T08:08:56;3.90;;;1.50;;
59008;SDS011;44794;42.652;23.318;2022-11-20T08:11:21;6.00;;;1.35;;
59008;SDS011;44794;42.652;23.318;2022-11-20T08:14:06;3.50;;;1.23;;
59008;SDS011;44794;42.652;23.318;2022-11-20T08:16:40;8.85;;;1.60;;
59008;SDS011;44794;42.652;23.318;2022-11-20T08:19:08;9.13;;;1.60;;
59008;SDS011;44794;42.652;23.318;2022-11-20T08:21:33;5.05;;;1.45;;
59008;SDS011;44794;42.652;23.318;2022-11-20T08:23:59;10.32;;;1.73;;
59008;SDS011;44794;42.652;23.318;2022-11-20T08:26:25;6.38;;;2.08;;
59008;SDS011;44794;42.652;23.318;2022-11-20T08:28:54;10.80;;;2.13;;
59008;SDS011;44794;42.652;23.318;2022-11-20T08:31:21;8.55;;;1.70;;
59008;SDS011;44794;42.652;23.318;2022-11-20T08:33:48;7.07;;;1.58;;
59008;SDS011;44794;42.652;23.318;2022-11-20T08:36:13;9.80;;;1.80;;
59008;SDS011;44794;42.652;23.318;2022-11-20T08:38:39;8.75;;;1.67;;
59008;SDS011;44794;42.652;23.318;2022-11-20T08:41:05;8.55;;;3.83;;
59008;SDS011;44794;42.652;23.318;2022-11-20T08:43:50;7.63;;;3.80;;
59008;SDS011;44794;42.652;23.318;2022-11-20T08:46:17;9.38;;;2.15;;
59008;SDS011;44794;42.652;23.318;2022-11-20T08:48:43;6.05;;;1.48;;
59008;SDS011;44794;42.652;23.318;2022-11-20T08:51:09;8.50;;;3.25;;
59008;SDS011;44794;42.652;23.318;2022-11-20T08:53:35;8.10;;;1.90;;
59008;SDS011;44794;42.652;23.318;2022-11-20T08:56:00;5.97;;;2.28;;
59008;SDS011;44794;42.652;23.318;2022-11-20T08:58:26;5.40;;;2.30;;
59008;SDS011;44794;42.652;23.318;2022-11-20T09:00:51;4.63;;;2.30;;
59008;SDS011;44794;42.652;23.318;2022-11-20T09:03:17;6.80;;;2.28;;
59008;SDS011;44794;42.652;23.318;2022-11-20T09:05:43;6.47;;;2.80;;
59008;SDS011;44794;42.652;23.318;2022-11-20T09:08:08;5.18;;;2.70;;
59008;SDS011;44794;42.652;23.318;2022-11-20T09:10:34;6.25;;;3.33;;
59008;SDS011;44794;42.652;23.318;2022-11-20T09:13:00;12.15;;;4.35;;
59008;SDS011;44794;42.652;23.318;2022-11-20T09:15:26;8.15;;;3.13;;
59008;SDS011;44794;42.652;23.318;2022-11-20T09:17:52;7.25;;;2.30;;
59008;SDS011;44794;42.652;23.318;2022-11-20T09:20:18;3.53;;;1.02;;
59008;SDS011;44794;42.652;23.318;2022-11-20T09:22:44;3.63;;;1.05;;
59008;SDS011;44794;42.652;23.318;2022-11-20T09:25:09;3.13;;;1.20;;
59008;SDS011;44794;42.652;23.318;2022-11-20T09:27:35;5.30;;;1.42;;
59008;SDS011;44794;42.652;23.318;2022-11-20T09:30:00;1.02;;;0.60;;
59008;SDS011;44794;42.652;23.318;2022-11-20T09:32:26;3.70;;;2.00;;
59008;SDS011;44794;42.652;23.318;2022-11-20T09:34:52;3.45;;;1.58;;
59008;SDS011;44794;42.652;23.318;2022-11-20T09:37:17;5.43;;;1.55;;
59008;SDS011;44794;42.652;23.318;2022-11-20T09:39:42;2.47;;;1.20;;
59008;SDS011;44794;42.652;23.318;2022-11-20T09:42:14;4.05;;;2.10;;
59008;SDS011;44794;42.652;23.318;2022-11-20T09:47:52;1.15;;;1.00;;
59008;SDS011;44794;42.652;23.318;2022-11-20T09:50:36;4.32;;;1.55;;
59008;SDS011;44794;42.652;23.318;2022-11-20T09:55:50;6.18;;;2.55;;
59008;SDS011;44794;42.652;23.318;2022-11-20T09:58:23;3.08;;;1.45;;
59008;SDS011;44794;42.652;23.318;2022-11-20T10:01:07;3.63;;;1.80;;
59008;SDS011;44794;42.652;23.318;2022-11-20T10:03:39;5.13;;;1.90;;
59008;SDS011;44794;42.652;23.318;2022-11-20T10:06:12;5.68;;;2.30;;
59008;SDS011;44794;42.652;23.318;2022-11-20T10:17:05;8.77;;;4.03;;
59008;SDS011;44794;42.652;23.318;2022-11-20T10:22:30;7.70;;;3.78;;
59008;SDS011;44794;42.652;23.318;2022-11-20T10:25:18;8.23;;;2.72;;
59008;SDS011;44794;42.652;23.318;2022-11-20T10:30:29;5.32;;;2.88;;
59008;SDS011;44794;42.652;23.318;2022-11-20T10:33:05;7.82;;;3.50;;
59008;SDS011;44794;42.652;23.318;2022-11-20T10:40:54;8.35;;;3.50;;
59008;SDS011;44794;42.652;23.318;2022-11-20T10:43:44;14.63;;;4.43;;
59008;SDS011;44794;42.652;23.318;2022-11-20T10:46:15;7.05;;;4.20;;
59008;SDS011;44794;42.652;23.318;2022-11-20T10:48:43;10.65;;;4.60;;
59008;SDS011;44794;42.652;23.318;2022-11-20T10:51:12;10.38;;;4.60;;
59008;SDS011;44794;42.652;23.318;2022-11-20T10:59:27;9.70;;;5.18;;
59008;SDS011;44794;42.652;23.318;2022-11-20T11:01:55;11.50;;;5.55;;
59008;SDS011;44794;42.652;23.318;2022-11-20T11:06:54;10.45;;;5.68;;
59008;SDS011;44794;42.652;23.318;2022-11-20T11:09:32;11.98;;;5.80;;
59008;SDS011;44794;42.652;23.318;2022-11-20T11:12:00;14.85;;;7.80;;
59008;SDS011;44794;42.652;23.318;2022-11-20T11:14:26;7.22;;;3.22;;
59008;SDS011;44794;42.652;23.318;2022-11-20T11:16:55;4.15;;;2.10;;
59008;SDS011;44794;42.652;23.318;2022-11-20T11:21:55;5.07;;;2.00;;
59008;SDS011;44794;42.652;23.318;2022-11-20T11:26:55;4.63;;;0.90;;
59008;SDS011;44794;42.652;23.318;2022-11-20T11:29:23;5.97;;;1.15;;
59008;SDS011;44794;42.652;23.318;2022-11-20T11:31:51;2.00;;;0.98;;
59008;SDS011;44794;42.652;23.318;2022-11-20T11:34:38;2.90;;;0.90;;
59008;SDS011;44794;42.652;23.318;2022-11-20T11:37:03;1.98;;;0.90;;
59008;SDS011;44794;42.652;23.318;2022-11-20T11:39:41;2.60;;;1.00;;
59008;SDS011;44794;42.652;23.318;2022-11-20T11:42:10;2.70;;;0.90;;
59008;SDS011;44794;42.652;23.318;2022-11-20T11:44:43;6.43;;;1.52;;
59008;SDS011;44794;42.652;23.318;2022-11-20T11:47:32;2.83;;;0.80;;
59008;SDS011;44794;42.652;23.318;2022-11-20T11:55:17;3.67;;;1.33;;
59008;SDS011;44794;42.652;23.318;2022-11-20T11:58:19;6.20;;;1.40;;
59008;SDS011;44794;42.652;23.318;2022-11-20T12:00:50;3.65;;;1.30;;
59008;SDS011;44794;42.652;23.318;2022-11-20T12:06:01;4.07;;;1.27;;
59008;SDS011;44794;42.652;23.318;2022-11-20T12:09:17;2.33;;;1.02;;
59008;SDS011;44794;42.652;23.318;2022-11-20T12:11:30;4.60;;;1.10;;
59008;SDS011;44794;42.652;23.318;2022-11-20T12:16:40;6.90;;;1.23;;
59008;SDS011;44794;42.652;23.318;2022-11-20T12:19:13;2.58;;;0.90;;
59008;SDS011;44794;42.652;23.318;2022-11-20T12:21:43;5.78;;;1.20;;
59008;SDS011;44794;42.652;23.318;2022-11-20T12:27:09;5.50;;;1.20;;
59008;SDS011;44794;42.652;23.318;2022-11-20T12:37:54;3.88;;;1.02;;
59008;SDS011;44794;42.652;23.318;2022-11-20T13:01:38;4.10;;;1.40;;
59008;SDS011;44794;42.652;23.318;2022-11-20T13:06:57;5.50;;;1.90;;
59008;SDS011;44794;42.652;23.318;2022-11-20T13:09:25;5.72;;;1.77;;
59008;SDS011;44794;42.652;23.318;2022-11-20T13:19:55;7.78;;;2.28;;
59008;SDS011;44794;42.652;23.318;2022-11-20T13:22:57;9.10;;;2.58;;
59008;SDS011;44794;42.652;23.318;2022-11-20T13:25:26;6.60;;;2.60;;
59008;SDS011;44794;42.652;23.318;2022-11-20T13:27:54;6.13;;;2.40;;
59008;SDS011;44794;42.652;23.318;2022-11-20T13:30:25;8.18;;;3.78;;
59008;SDS011;44794;42.652;23.318;2022-11-20T13:33:06;7.50;;;3.17;;
59008;SDS011;44794;42.652;23.318;2022-11-20T13:35:40;5.95;;;2.90;;
59008;SDS011;44794;42.652;23.318;2022-11-20T13:40:54;5.72;;;3.70;;
59008;SDS011;44794;42.652;23.318;2022-11-20T13:43:49;6.75;;;3.40;;
59008;SDS011;44794;42.652;23.318;2022-11-20T13:46:15;7.63;;;3.78;;
59008;SDS011;44794;42.652;23.318;2022-11-20T13:48:41;7.28;;;3.42;;
59008;SDS011;44794;42.652;23.318;2022-11-20T13:56:26;6.05;;;3.10;;
59008;SDS011;44794;42.652;23.318;2022-11-20T13:59:02;9.70;;;4.40;;
59008;SDS011;44794;42.652;23.318;2022-11-20T14:01:38;13.88;;;5.75;;
59008;SDS011;44794;42.652;23.318;2022-11-20T14:04:07;10.50;;;5.40;;
59008;SDS011;44794;42.652;23.318;2022-11-20T14:06:46;8.98;;;4.05;;
59008;SDS011;44794;42.652;23.318;2022-11-20T14:09:30;7.80;;;3.43;;
59008;SDS011;44794;42.652;23.318;2022-11-20T14:11:57;8.23;;;3.78;;
59008;SDS011;44794;42.652;23.318;2022-11-20T14:14:27;7.15;;;3.45;;
59008;SDS011;44794;42.652;23.318;2022-11-20T14:19:33;25.27;;;15.85;;
59008;SDS011;44794;42.652;23.318;2022-11-20T14:22:08;14.95;;;7.90;;
59008;SDS011;44794;42.652;23.318;2022-11-20T14:24:42;13.85;;;5.97;;
59008;SDS011;44794;42.652;23.318;2022-11-20T14:27:14;10.20;;;6.13;;
59008;SDS011;44794;42.652;23.318;2022-11-20T14:29:43;10.48;;;6.47;;
59008;SDS011;44794;42.652;23.318;2022-11-20T14:32:11;12.95;;;6.40;;
59008;SDS011;44794;42.652;23.318;2022-11-20T14:34:41;11.77;;;6.20;;
59008;SDS011;44794;42.652;23.318;2022-11-20T14:37:11;13.52;;;7.85;;
59008;SDS011;44794;42.652;23.318;2022-11-20T14:39:42;17.45;;;7.93;;
59008;SDS011;44794;42.652;23.318;2022-11-20T14:42:20;13.65;;;6.05;;
59008;SDS011;44794;42.652;23.318;2022-11-20T14:44:45;10.07;;;6.32;;
59008;SDS011;44794;42.652;23.318;2022-11-20T14:47:14;9.00;;;4.80;;
59008;SDS011;44794;42.652;23.318;2022-11-20T14:49:45;5.97;;;3.45;;
59008;SDS011;44794;42.652;23.318;2022-11-20T14:52:15;6.82;;;3.72;;
59008;SDS011;44794;42.652;23.318;2022-11-20T14:54:44;9.57;;;4.55;;
59008;SDS011;44794;42.652;23.318;2022-11-20T14:57:18;11.18;;;4.38;;
59008;SDS011;44794;42.652;23.318;2022-11-20T15:02:44;8.30;;;3.70;;
59008;SDS011;44794;42.652;23.318;2022-11-20T15:05:10;7.22;;;3.40;;
59008;SDS011;44794;42.652;23.318;2022-11-20T15:07:37;7.32;;;4.43;;
59008;SDS011;44794;42.652;23.318;2022-11-20T15:10:12;7.78;;;4.25;;
59008;SDS011;44794;42.652;23.318;2022-11-20T15:12:50;7.68;;;4.00;;
59008;SDS011;44794;42.652;23.318;2022-11-20T15:15:25;7.97;;;4.00;;
59008;SDS011;44794;42.652;23.318;2022-11-20T15:17:56;8.20;;;3.58;;
59008;SDS011;44794;42.652;23.318;2022-11-20T15:20:24;5.65;;;3.00;;
59008;SDS011;44794;42.652;23.318;2022-11-20T15:22:52;5.70;;;3.50;;
59008;SDS011;44794;42.652;23.318;2022-11-20T15:25:18;6.47;;;3.63;;
59008;SDS011;44794;42.652;23.318;2022-11-20T15:27:44;6.47;;;3.50;;
59008;SDS011;44794;42.652;23.318;2022-11-20T15:30:12;7.95;;;3.80;;
59008;SDS011;44794;42.652;23.318;2022-11-20T15:32:42;4.60;;;3.33;;
59008;SDS011;44794;42.652;23.318;2022-11-20T15:35:09;6.43;;;4.10;;
59008;SDS011;44794;42.652;23.318;2022-11-20T15:37:37;8.55;;;4.20;;
59008;SDS011;44794;42.652;23.318;2022-11-20T15:40:07;8.52;;;4.20;;
59008;SDS011;44794;42.652;23.318;2022-11-20T15:42:33;7.35;;;3.97;;
59008;SDS011;44794;42.652;23.318;2022-11-20T15:44:59;8.13;;;4.45;;
59008;SDS011;44794;42.652;23.318;2022-11-20T15:47:33;6.85;;;4.38;;
59008;SDS011;44794;42.652;23.318;2022-11-20T15:50:00;6.97;;;3.47;;
59008;SDS011;44794;42.652;23.318;2022-11-20T15:52:25;5.03;;;2.22;;
59008;SDS011;44794;42.652;23.318;2022-11-20T15:54:56;6.20;;;2.45;;
59008;SDS011;44794;42.652;23.318;2022-11-20T15:57:21;5.15;;;2.95;;
59008;SDS011;44794;42.652;23.318;2022-11-20T15:59:46;7.22;;;3.35;;
59008;SDS011;44794;42.652;23.318;2022-11-20T16:02:12;6.93;;;3.45;;
59008;SDS011;44794;42.652;23.318;2022-11-20T16:04:39;8.15;;;3.58;;
59008;SDS011;44794;42.652;23.318;2022-11-20T16:07:05;9.10;;;4.00;;
59008;SDS011;44794;42.652;23.318;2022-11-20T16:09:30;7.88;;;3.88;;
59008;SDS011;44794;42.652;23.318;2022-11-20T16:11:56;12.02;;;4.20;;
59008;SDS011;44794;42.652;23.318;2022-11-20T16:14:24;9.48;;;4.47;;
59008;SDS011;44794;42.652;23.318;2022-11-20T16:17:08;10.63;;;4.50;;
59008;SDS011;44794;42.652;23.318;2022-11-20T16:19:34;5.30;;;3.00;;
59008;SDS011;44794;42.652;23.318;2022-11-20T16:21:59;8.23;;;3.70;;
59008;SDS011;44794;42.652;23.318;2022-11-20T16:24:27;3.72;;;2.10;;
59008;SDS011;44794;42.652;23.318;2022-11-20T16:26:53;5.05;;;2.60;;
59008;SDS011;44794;42.652;23.318;2022-11-20T16:29:19;4.80;;;2.28;;
59008;SDS011;44794;42.652;23.318;2022-11-20T16:31:45;4.22;;;2.75;;
59008;SDS011;44794;42.652;23.318;2022-11-20T16:34:10;5.65;;;2.83;;
59008;SDS011;44794;42.652;23.318;2022-11-20T16:36:36;6.93;;;3.35;;
59008;SDS011;44794;42.652;23.318;2022-11-20T16:39:04;4.85;;;3.40;;
59008;SDS011;44794;42.652;23.318;2022-11-20T16:41:31;7.95;;;3.95;;